createdAt,value
2019-04-22T00:00:16.236Z,13.87
2019-04-22T00:01:19.490Z,13.91
2019-04-22T00:02:13.806Z,14.04
2019-04-22T00:03:15.246Z,14.09
2019-04-22T00:04:17.773Z,13.98
2019-04-22T00:05:25.923Z,14.01
2019-04-22T00:06:30.882Z,14.05
2019-04-22T00:07:36.198Z,14.06
2019-04-22T00:08:36.193Z,13.96
2019-04-22T00:09:38.881Z,14.04
2019-04-22T00:10:43.720Z,13.99
2019-04-22T00:11:35.461Z,13.96
2019-04-22T00:12:43.942Z,13.86
2019-04-22T00:13:40.673Z,13.88
2019-04-22T00:14:35.270Z,13.83
2019-04-22T00:15:32.600Z,13.76
2019-04-22T00:16:48.754Z,13.80
2019-04-22T00:18:54.851Z,13.83
2019-04-22T00:19:43.800Z,13.91
2019-04-22T00:20:35.496Z,14.01
2019-04-22T00:21:40.381Z,13.99
2019-04-22T00:22:38.047Z,13.99
2019-04-22T00:23:39.215Z,13.88
2019-04-22T00:24:40.215Z,13.88
2019-04-22T00:25:42.047Z,13.87
2019-04-22T00:27:40.570Z,14.04
2019-04-22T00:28:44.067Z,14.04
2019-04-22T00:29:59.357Z,14.11
2019-04-22T00:30:35.565Z,14.01
2019-04-22T00:31:32.740Z,14.02
2019-04-22T00:32:36.872Z,13.94
2019-04-22T00:33:26.781Z,14.08
2019-04-22T00:34:35.942Z,13.96
2019-04-22T00:35:35.486Z,13.88
2019-04-22T00:36:36.478Z,13.88
2019-04-22T00:37:43.775Z,14.04
2019-04-22T00:38:38.759Z,13.98
2019-04-22T00:39:44.769Z,14.06
2019-04-22T00:40:41.144Z,14.05
2019-04-22T00:41:44.100Z,13.90
2019-04-22T00:42:40.955Z,13.86
2019-04-22T00:43:45.856Z,13.93
2019-04-22T00:44:43.207Z,13.98
2019-04-22T00:45:40.475Z,14.06
2019-04-22T00:46:42.984Z,13.98
2019-04-22T00:47:46.238Z,14.09
2019-04-22T00:49:31.607Z,14.02
2019-04-22T00:50:06.795Z,13.94
2019-04-22T00:50:44.307Z,13.98
2019-04-22T00:51:44.523Z,14.04
2019-04-22T00:54:43.948Z,13.91
2019-04-22T00:55:40.406Z,14.02
2019-04-22T00:56:35.291Z,13.94
2019-04-22T00:58:38.706Z,14.01
2019-04-22T00:59:43.602Z,13.84
2019-04-22T01:00:37.655Z,13.99
2019-04-22T01:01:41.039Z,13.99
2019-04-22T01:02:41.624Z,13.87
2019-04-22T01:04:47.551Z,13.83
2019-04-22T01:05:51.514Z,13.73
2019-04-22T01:06:48.946Z,13.84
2019-04-22T01:07:51.394Z,13.68
2019-04-22T01:08:53.621Z,13.73
2019-04-22T01:09:52.149Z,13.66
2019-04-22T01:10:45.453Z,13.72
2019-04-22T01:11:44.558Z,13.73
2019-04-22T01:12:44.328Z,13.75
2019-04-22T01:13:46.918Z,13.71
2019-04-22T01:14:49.517Z,13.73
2019-04-22T01:15:47.869Z,13.66
2019-04-22T01:16:49.014Z,13.69
2019-04-22T01:17:46.450Z,13.61
2019-04-22T01:18:48.775Z,13.61
2019-04-22T01:19:50.952Z,13.54
2019-04-22T01:21:43.663Z,13.62
2019-04-22T01:22:46.125Z,13.57
2019-04-22T01:23:46.161Z,13.61
2019-04-22T01:24:45.909Z,13.61
2019-04-22T01:25:41.041Z,13.51
2019-04-22T01:26:40.490Z,13.55
2019-04-22T01:27:39.213Z,13.51
2019-04-22T01:28:34.270Z,13.61
2019-04-22T01:29:36.005Z,13.53
2019-04-22T01:30:32.653Z,13.59
2019-04-22T01:31:28.785Z,13.54
2019-04-22T01:32:27.284Z,13.61
2019-04-22T01:33:32.472Z,13.47
2019-04-22T01:34:37.484Z,13.50
2019-04-22T01:35:37.465Z,13.48
2019-04-22T01:36:44.082Z,13.44
2019-04-22T01:37:41.682Z,13.44
2019-04-22T01:38:45.499Z,13.53
2019-04-22T01:39:50.118Z,13.47
2019-04-22T01:40:53.496Z,13.47
2019-04-22T01:41:55.141Z,13.39
2019-04-22T01:42:42.275Z,13.47
2019-04-22T01:44:00.377Z,13.48
2019-04-22T01:44:45.824Z,13.43
2019-04-22T01:45:49.871Z,13.43
2019-04-22T01:46:50.725Z,13.48
2019-04-22T01:47:49.085Z,13.41
2019-04-22T01:48:50.611Z,13.39
2019-04-22T01:49:45.884Z,13.29
2019-04-22T01:50:43.121Z,13.46
2019-04-22T01:51:59.810Z,13.55
2019-04-22T01:52:56.302Z,13.63
2019-04-22T01:53:50.432Z,13.55
2019-04-22T01:54:52.133Z,13.59
2019-04-22T01:55:55.081Z,13.48
2019-04-22T01:56:47.322Z,13.47
2019-04-22T01:57:47.741Z,13.47
2019-04-22T01:58:38.064Z,13.39
2019-04-22T01:59:41.661Z,13.28
2019-04-22T02:00:51.208Z,13.19
2019-04-22T02:01:50.016Z,13.10
2019-04-22T02:02:49.210Z,13.14
2019-04-22T02:03:51.435Z,13.22
2019-04-22T02:05:04.612Z,13.39
2019-04-22T02:05:44.210Z,13.29
2019-04-22T02:06:48.231Z,13.28
2019-04-22T02:07:49.235Z,13.22
2019-04-22T02:08:53.357Z,13.25
2019-04-22T02:09:53.338Z,13.19
2019-04-22T02:10:57.633Z,13.19
2019-04-22T02:12:08.004Z,13.13
2019-04-22T02:12:46.986Z,13.24
2019-04-22T02:13:49.612Z,13.21
2019-04-22T02:14:44.291Z,13.25
2019-04-22T02:15:52.479Z,13.24
2019-04-22T02:16:50.396Z,13.28
2019-04-22T02:18:11.004Z,13.27
2019-04-22T02:18:56.119Z,13.32
2019-04-22T02:20:05.361Z,13.36
2019-04-22T02:21:01.514Z,13.28
2019-04-22T02:21:48.555Z,13.28
2019-04-22T02:23:00.903Z,13.28
2019-04-22T02:25:49.704Z,13.32
2019-04-22T02:27:00.288Z,13.38
2019-04-22T02:27:46.015Z,13.29
2019-04-22T02:29:01.920Z,13.28
2019-04-22T02:29:49.690Z,13.39
2019-04-22T02:31:16.004Z,13.38
2019-04-22T02:31:51.146Z,13.27
2019-04-22T02:33:11.558Z,13.22
2019-04-22T02:34:56.934Z,13.10
2019-04-22T02:36:08.245Z,13.03
2019-04-22T02:36:54.336Z,12.94
2019-04-22T02:37:45.236Z,12.94
2019-04-22T02:39:57.910Z,12.87
2019-04-22T02:41:50.330Z,12.87
2019-04-22T02:42:51.826Z,12.77
2019-04-22T02:44:04.036Z,12.84
2019-04-22T02:44:56.075Z,12.74
2019-04-22T02:46:10.670Z,12.80
2019-04-22T02:47:06.934Z,12.70
2019-04-22T02:47:49.957Z,12.62
2019-04-22T02:50:54.185Z,12.58
2019-04-22T02:51:49.859Z,12.61
2019-04-22T02:54:55.104Z,12.59
2019-04-22T02:56:05.516Z,12.61
2019-04-22T02:56:53.043Z,12.62
2019-04-22T02:58:03.753Z,12.67
2019-04-22T03:00:01.018Z,12.61
2019-04-22T03:01:01.219Z,12.66
2019-04-22T03:02:03.329Z,12.66
2019-04-22T03:04:03.404Z,12.66
2019-04-22T03:06:15.770Z,12.59
2019-04-22T03:06:45.912Z,12.54
2019-04-22T03:08:10.804Z,12.52
2019-04-22T03:09:10.860Z,12.44
2019-04-22T03:11:14.675Z,12.55
2019-04-22T03:12:14.244Z,12.43
2019-04-22T03:13:01.054Z,12.46
2019-04-22T03:14:07.023Z,12.48
2019-04-22T03:15:06.228Z,12.59
2019-04-22T03:16:07.956Z,12.55
2019-04-22T03:17:03.472Z,12.59
2019-04-22T03:18:20.373Z,12.59
2019-04-22T03:19:17.429Z,12.52
2019-04-22T03:21:08.051Z,12.56
2019-04-22T03:22:00.570Z,12.49
2019-04-22T03:25:32.656Z,12.58
2019-04-22T03:27:04.109Z,12.58
2019-04-22T03:27:54.534Z,12.54
2019-04-22T03:29:04.155Z,12.54
2019-04-22T03:30:33.274Z,12.56
2019-04-22T03:31:06.715Z,12.49
2019-04-22T03:35:34.509Z,12.44
2019-04-22T03:36:05.799Z,12.49
2019-04-22T03:40:13.980Z,12.34
2019-04-22T03:41:03.624Z,12.38
2019-04-22T03:45:10.189Z,12.13
2019-04-22T03:46:06.284Z,12.18
2019-04-22T03:47:10.986Z,12.07
2019-04-22T03:48:04.390Z,12.08
2019-04-22T03:49:24.009Z,11.98
2019-04-22T03:50:16.296Z,12.00
2019-04-22T03:51:09.571Z,12.00
2019-04-22T03:52:18.655Z,11.96
2019-04-22T03:54:10.069Z,11.98
2019-04-22T03:55:15.723Z,11.90
2019-04-22T03:56:13.753Z,11.87
2019-04-22T03:57:57.227Z,11.90
2019-04-22T03:59:07.231Z,11.93
2019-04-22T04:02:02.080Z,11.93
2019-04-22T04:03:09.422Z,11.88
2019-04-22T04:04:09.416Z,11.87
2019-04-22T04:04:59.115Z,11.98
2019-04-22T04:05:59.558Z,11.98
2019-04-22T04:07:15.109Z,12.05
2019-04-22T04:08:05.761Z,12.31
2019-04-22T04:09:08.994Z,12.31
2019-04-22T04:10:12.369Z,12.37
2019-04-22T04:12:03.547Z,12.56
2019-04-22T04:13:10.236Z,12.51
2019-04-22T04:14:09.323Z,12.49
2019-04-22T04:15:55.651Z,12.48
2019-04-22T04:17:06.230Z,12.44
2019-04-22T04:17:59.402Z,12.36
2019-04-22T04:19:07.833Z,12.37
2019-04-22T04:21:18.833Z,12.25
2019-04-22T04:22:08.029Z,12.33
2019-04-22T04:23:07.851Z,12.31
2019-04-22T04:26:01.786Z,12.16
2019-04-22T04:27:35.023Z,12.11
2019-04-22T04:28:24.415Z,12.12
2019-04-22T04:29:15.132Z,12.08
2019-04-22T04:30:14.764Z,12.08
2019-04-22T04:31:00.903Z,12.13
2019-04-22T04:32:18.823Z,12.13
2019-04-22T04:34:04.478Z,12.12
2019-04-22T04:36:03.372Z,12.00
2019-04-22T04:38:12.966Z,12.05
2019-04-22T04:39:00.722Z,12.13
2019-04-22T04:41:08.820Z,12.22
2019-04-22T04:42:58.493Z,12.33
2019-04-22T04:46:07.259Z,12.36
2019-04-22T04:47:11.498Z,12.22
2019-04-22T04:49:16.193Z,12.07
2019-04-22T04:52:06.416Z,12.11
2019-04-22T04:54:14.953Z,12.13
2019-04-22T04:55:09.998Z,12.04
2019-04-22T04:56:08.374Z,12.01
2019-04-22T04:56:58.654Z,12.00
2019-04-22T05:02:06.443Z,12.36
2019-04-22T05:03:00.489Z,12.40
2019-04-22T05:04:04.579Z,12.51
2019-04-22T05:05:12.138Z,12.49
2019-04-22T05:08:21.378Z,12.49
2019-04-22T05:10:22.115Z,12.56
2019-04-22T05:12:25.347Z,12.49
2019-04-22T05:13:10.322Z,12.58
2019-04-22T05:14:05.481Z,12.61
2019-04-22T05:15:09.131Z,12.52
2019-04-22T05:16:20.789Z,12.54
2019-04-22T05:17:03.897Z,12.61
2019-04-22T05:18:58.781Z,12.46
2019-04-22T05:20:07.440Z,12.54
2019-04-22T05:21:09.731Z,12.54
2019-04-22T05:21:57.772Z,12.61
2019-04-22T05:22:51.003Z,12.76
2019-04-22T05:24:03.782Z,12.73
2019-04-22T05:24:58.346Z,12.71
2019-04-22T05:26:00.061Z,12.77
2019-04-22T05:27:02.106Z,12.88
2019-04-22T05:27:59.901Z,12.84
2019-04-22T05:28:58.531Z,13.01
2019-04-22T05:30:21.559Z,13.13
2019-04-22T05:30:57.667Z,13.24
2019-04-22T05:31:56.776Z,13.35
2019-04-22T05:32:58.893Z,13.46
2019-04-22T05:34:02.004Z,13.57
2019-04-22T05:34:53.635Z,13.59
2019-04-22T05:35:53.703Z,13.73
2019-04-22T05:36:55.433Z,13.80
2019-04-22T05:37:57.984Z,13.93
2019-04-22T05:39:58.703Z,14.06
2019-04-22T05:40:58.953Z,13.99
2019-04-22T05:41:54.791Z,14.09
2019-04-22T05:42:56.356Z,14.13
2019-04-22T05:43:59.663Z,14.19
2019-04-22T05:44:54.925Z,14.41
2019-04-22T05:45:51.534Z,14.48
2019-04-22T05:46:52.765Z,14.56
2019-04-22T05:47:57.572Z,14.56
2019-04-22T05:49:15.105Z,14.75
2019-04-22T05:50:00.072Z,14.83
2019-04-22T05:50:56.460Z,14.90
2019-04-22T05:51:54.926Z,14.85
2019-04-22T05:52:56.649Z,14.95
2019-04-22T05:53:59.527Z,15.09
2019-04-22T05:54:54.917Z,15.12
2019-04-22T05:55:56.637Z,15.20
2019-04-22T05:56:42.910Z,15.27
2019-04-22T05:57:57.736Z,15.37
2019-04-22T05:58:58.804Z,15.34
2019-04-22T06:00:02.532Z,15.34
2019-04-22T06:01:19.820Z,15.40
2019-04-22T06:01:59.712Z,15.49
2019-04-22T06:03:59.239Z,15.67
2019-04-22T06:04:58.270Z,15.77
2019-04-22T06:05:55.257Z,15.78
2019-04-22T06:06:54.431Z,15.76
2019-04-22T06:07:52.734Z,15.81
2019-04-22T06:08:59.172Z,15.92
2019-04-22T06:10:02.334Z,15.93
2019-04-22T06:10:59.202Z,15.95
2019-04-22T06:11:51.572Z,16.06
2019-04-22T06:12:55.064Z,16.06
2019-04-22T06:13:51.701Z,16.08
2019-04-22T06:14:54.060Z,16.22
2019-04-22T06:15:52.997Z,16.29
2019-04-22T06:17:02.118Z,16.25
2019-04-22T06:18:02.220Z,16.33
2019-04-22T06:19:01.648Z,16.44
2019-04-22T06:19:50.485Z,16.51
2019-04-22T06:23:00.305Z,16.57
2019-04-22T06:24:04.975Z,16.63
2019-04-22T06:24:57.778Z,16.70
2019-04-22T06:27:02.826Z,16.72
2019-04-22T06:27:53.912Z,16.84
2019-04-22T06:28:54.718Z,16.87
2019-04-22T06:29:55.407Z,16.91
2019-04-22T06:30:57.528Z,17.03
2019-04-22T06:32:23.209Z,16.98
2019-04-22T06:32:53.758Z,16.98
2019-04-22T06:34:02.284Z,17.17
2019-04-22T06:35:00.428Z,17.07
2019-04-22T06:35:56.376Z,17.07
2019-04-22T06:37:03.589Z,17.20
2019-04-22T06:38:19.186Z,17.27
2019-04-22T06:38:53.283Z,17.30
2019-04-22T06:39:53.732Z,17.35
2019-04-22T06:41:02.789Z,17.33
2019-04-22T06:41:56.206Z,17.40
2019-04-22T06:42:57.922Z,17.51
2019-04-22T06:43:58.394Z,17.54
2019-04-22T06:45:02.817Z,17.60
2019-04-22T06:45:51.803Z,17.55
2019-04-22T06:46:53.250Z,17.66
2019-04-22T06:48:12.684Z,17.70
2019-04-22T06:48:55.169Z,17.74
2019-04-22T06:49:55.520Z,17.77
2019-04-22T06:50:52.969Z,17.74
2019-04-22T06:51:55.791Z,17.76
2019-04-22T06:52:58.616Z,17.84
2019-04-22T06:53:53.967Z,17.94
2019-04-22T06:54:54.690Z,17.98
2019-04-22T06:55:51.694Z,18.01
2019-04-22T06:56:58.112Z,18.07
2019-04-22T06:57:53.310Z,18.14
2019-04-22T06:58:52.243Z,18.14
2019-04-22T06:59:58.743Z,18.05
2019-04-22T07:00:54.707Z,18.09
2019-04-22T07:01:59.313Z,18.10
2019-04-22T07:03:53.923Z,18.36
2019-04-22T07:04:58.395Z,18.38
2019-04-22T07:05:52.337Z,18.53
2019-04-22T07:07:02.199Z,18.49
2019-04-22T07:08:02.650Z,18.56
2019-04-22T07:09:17.919Z,18.65
2019-04-22T07:09:54.304Z,18.68
2019-04-22T07:10:50.742Z,18.76
2019-04-22T07:11:53.080Z,18.74
2019-04-22T07:12:54.319Z,18.56
2019-04-22T07:14:00.109Z,18.60
2019-04-22T07:14:57.709Z,18.59
2019-04-22T07:16:00.420Z,18.68
2019-04-22T07:17:07.377Z,18.89
2019-04-22T07:17:58.175Z,18.93
2019-04-22T07:18:55.181Z,18.99
2019-04-22T07:19:48.726Z,19.09
2019-04-22T07:20:56.382Z,19.21
2019-04-22T07:21:57.227Z,19.24
2019-04-22T07:22:53.189Z,19.23
2019-04-22T07:24:03.012Z,19.21
2019-04-22T07:24:56.199Z,19.16
2019-04-22T07:25:53.385Z,19.27
2019-04-22T07:26:51.139Z,19.23
2019-04-22T07:27:52.336Z,19.12
2019-04-22T07:28:52.867Z,19.20
2019-04-22T07:30:52.821Z,19.25
2019-04-22T07:31:54.496Z,19.32
2019-04-22T07:33:51.666Z,19.50
2019-04-22T07:34:52.938Z,19.46
2019-04-22T07:36:12.554Z,19.40
2019-04-22T07:37:00.413Z,19.49
2019-04-22T07:37:48.316Z,19.57
2019-04-22T07:38:50.452Z,19.57
2019-04-22T07:39:54.971Z,19.72
2019-04-22T07:40:55.471Z,19.90
2019-04-22T07:41:51.370Z,20.12
2019-04-22T07:42:57.501Z,20.15
2019-04-22T07:44:10.275Z,20.19
2019-04-22T07:44:54.800Z,20.22
2019-04-22T07:45:53.425Z,20.23
2019-04-22T07:46:56.636Z,20.20
2019-04-22T07:48:51.902Z,20.37
2019-04-22T07:49:51.042Z,20.54
2019-04-22T07:51:08.760Z,20.51
2019-04-22T07:51:49.618Z,20.53
2019-04-22T07:52:52.190Z,20.57
2019-04-22T07:53:57.495Z,20.50
2019-04-22T07:54:53.072Z,20.54
2019-04-22T07:55:51.865Z,20.41
2019-04-22T07:57:02.679Z,20.31
2019-04-22T07:57:52.036Z,20.48
2019-04-22T07:58:55.626Z,20.60
2019-04-22T07:59:58.979Z,20.75
2019-04-22T08:00:57.769Z,20.81
2019-04-22T08:01:48.874Z,20.79
2019-04-22T08:04:00.165Z,20.71
2019-04-22T08:05:05.424Z,20.71
2019-04-22T08:06:07.920Z,20.64
2019-04-22T08:06:57.528Z,20.44
2019-04-22T08:07:59.486Z,20.56
2019-04-22T08:08:58.375Z,20.50
2019-04-22T08:10:04.548Z,20.73
2019-04-22T08:10:59.332Z,20.85
2019-04-22T08:11:53.776Z,20.87
2019-04-22T08:12:55.023Z,20.58
2019-04-22T08:13:55.264Z,20.40
2019-04-22T08:14:52.060Z,20.56
2019-04-22T08:15:55.327Z,20.78
2019-04-22T08:17:00.987Z,21.05
2019-04-22T08:19:00.718Z,21.12
2019-04-22T08:19:55.985Z,21.19
2019-04-22T08:20:56.593Z,21.19
2019-04-22T08:21:53.232Z,21.31
2019-04-22T08:22:57.395Z,20.98
2019-04-22T08:23:57.562Z,20.83
2019-04-22T08:24:54.273Z,21.06
2019-04-22T08:26:06.006Z,21.16
2019-04-22T08:26:53.283Z,20.94
2019-04-22T08:27:57.040Z,21.15
2019-04-22T08:29:03.858Z,21.22
2019-04-22T08:29:59.803Z,21.27
2019-04-22T08:30:54.399Z,21.27
2019-04-22T08:31:55.229Z,21.52
2019-04-22T08:32:53.098Z,21.38
2019-04-22T08:34:00.346Z,21.34
2019-04-22T08:34:47.227Z,21.28
2019-04-22T08:37:12.365Z,21.11
2019-04-22T08:38:31.396Z,21.00
2019-04-22T08:39:48.558Z,21.06
2019-04-22T08:40:56.146Z,20.97
2019-04-22T08:41:43.570Z,20.96
2019-04-22T08:42:58.371Z,21.21
2019-04-22T08:43:57.485Z,21.40
2019-04-22T08:45:06.226Z,21.28
2019-04-22T08:45:57.184Z,21.38
2019-04-22T08:46:57.922Z,21.59
2019-04-22T08:47:51.183Z,21.71
2019-04-22T08:48:57.753Z,21.91
2019-04-22T08:50:04.647Z,21.81
2019-04-22T08:50:58.720Z,21.58
2019-04-22T08:51:50.702Z,21.16
2019-04-22T08:52:57.611Z,21.05
2019-04-22T08:54:57.422Z,21.24
2019-04-22T08:55:57.881Z,21.09
2019-04-22T08:56:52.399Z,21.24
2019-04-22T08:58:11.258Z,21.48
2019-04-22T08:58:57.260Z,21.68
2019-04-22T08:59:59.031Z,21.64
2019-04-22T09:00:57.009Z,21.71
2019-04-22T09:01:52.899Z,21.75
2019-04-22T09:02:55.450Z,21.73
2019-04-22T09:03:52.680Z,21.96
2019-04-22T09:06:15.281Z,21.98
2019-04-22T09:07:07.727Z,21.86
2019-04-22T09:08:05.621Z,21.71
2019-04-22T09:08:55.242Z,21.73
2019-04-22T09:09:54.087Z,21.70
2019-04-22T09:10:51.930Z,21.90
2019-04-22T09:11:54.661Z,21.96
2019-04-22T09:13:55.116Z,21.59
2019-04-22T09:15:02.487Z,21.64
2019-04-22T09:15:49.585Z,21.66
2019-04-22T09:16:52.693Z,21.83
2019-04-22T09:17:55.989Z,21.96
2019-04-22T09:18:53.923Z,22.12
2019-04-22T09:19:54.573Z,22.21
2019-04-22T09:21:02.147Z,21.91
2019-04-22T09:21:57.517Z,21.89
2019-04-22T09:22:56.789Z,21.82
2019-04-22T09:24:53.957Z,22.15
2019-04-22T09:25:51.109Z,22.20
2019-04-22T09:27:15.789Z,21.99
2019-04-22T09:27:51.296Z,21.89
2019-04-22T09:29:50.097Z,22.11
2019-04-22T09:30:55.559Z,22.20
2019-04-22T09:31:56.658Z,22.42
2019-04-22T09:32:59.161Z,22.60
2019-04-22T09:33:47.613Z,22.69
2019-04-22T09:34:51.326Z,22.66
2019-04-22T09:36:02.955Z,22.60
2019-04-22T09:36:58.192Z,22.46
2019-04-22T09:38:08.900Z,22.52
2019-04-22T09:38:48.679Z,22.51
2019-04-22T09:39:59.654Z,22.49
2019-04-22T09:40:52.481Z,22.48
2019-04-22T09:41:51.390Z,22.39
2019-04-22T09:43:00.162Z,22.29
2019-04-22T09:43:56.629Z,22.44
2019-04-22T09:45:06.166Z,22.38
2019-04-22T09:45:53.940Z,22.15
2019-04-22T09:46:53.721Z,22.21
2019-04-22T09:47:58.299Z,22.29
2019-04-22T09:48:59.232Z,22.57
2019-04-22T09:49:54.925Z,22.64
2019-04-22T09:50:51.933Z,22.79
2019-04-22T09:51:55.440Z,22.51
2019-04-22T09:52:54.885Z,22.59
2019-04-22T09:54:04.081Z,22.75
2019-04-22T09:54:59.641Z,22.88
2019-04-22T09:55:53.157Z,22.81
2019-04-22T09:56:53.110Z,22.79
2019-04-22T09:57:53.071Z,22.69
2019-04-22T09:59:05.559Z,22.88
2019-04-22T09:59:57.768Z,22.85
2019-04-22T10:00:55.876Z,22.89
2019-04-22T10:02:08.116Z,22.70
2019-04-22T10:02:55.918Z,22.59
2019-04-22T10:03:56.167Z,22.49
2019-04-22T10:04:55.472Z,22.75
2019-04-22T10:06:07.401Z,22.74
2019-04-22T10:06:54.716Z,22.72
2019-04-22T10:07:54.380Z,22.44
2019-04-22T10:10:01.467Z,22.46
2019-04-22T10:10:56.594Z,22.51
2019-04-22T10:11:52.382Z,22.51
2019-04-22T10:12:46.719Z,22.51
2019-04-22T10:13:53.724Z,22.61
2019-04-22T10:14:51.098Z,22.85
2019-04-22T10:15:58.930Z,23.00
2019-04-22T10:16:50.713Z,22.94
2019-04-22T10:17:54.928Z,22.48
2019-04-22T10:18:52.397Z,22.21
2019-04-22T10:20:05.643Z,22.30
2019-04-22T10:20:57.328Z,22.56
2019-04-22T10:22:57.956Z,22.86
2019-04-22T10:23:53.323Z,22.89
2019-04-22T10:24:52.035Z,22.94
2019-04-22T10:25:52.614Z,23.11
2019-04-22T10:26:50.610Z,23.06
2019-04-22T10:27:56.827Z,22.94
2019-04-22T10:28:55.303Z,22.97
2019-04-22T10:29:54.284Z,23.18
2019-04-22T10:30:52.222Z,23.35
2019-04-22T10:32:06.701Z,23.47
2019-04-22T10:32:47.925Z,23.42
2019-04-22T10:33:48.235Z,23.04
2019-04-22T10:34:34.757Z,23.18
2019-04-22T10:35:28.733Z,23.41
2019-04-22T10:36:27.643Z,23.57
2019-04-22T10:37:26.224Z,23.52
2019-04-22T10:38:26.537Z,23.45
2019-04-22T10:39:36.813Z,23.52
2019-04-22T10:40:26.179Z,23.50
2019-04-22T10:41:26.400Z,23.44
2019-04-22T10:42:27.128Z,23.16
2019-04-22T10:43:27.356Z,23.37
2019-04-22T10:44:27.081Z,23.63
2019-04-22T10:45:26.143Z,23.71
2019-04-22T10:46:26.399Z,23.86
2019-04-22T10:47:26.103Z,23.63
2019-04-22T10:48:26.271Z,23.15
2019-04-22T10:49:26.637Z,23.09
2019-04-22T10:50:26.078Z,23.00
2019-04-22T10:51:26.540Z,23.12
2019-04-22T10:52:27.555Z,23.14
2019-04-22T10:53:26.073Z,22.72
2019-04-22T10:54:27.260Z,22.42
2019-04-22T10:55:27.391Z,22.46
2019-04-22T10:56:27.268Z,22.64
2019-04-22T10:57:25.996Z,22.51
2019-04-22T10:58:26.669Z,22.48
2019-04-22T10:59:26.920Z,22.51
2019-04-22T11:00:27.234Z,22.64
2019-04-22T11:01:25.985Z,22.84
2019-04-22T11:02:25.956Z,22.89
2019-04-22T11:03:26.535Z,23.06
2019-04-22T11:04:26.118Z,23.37
2019-04-22T11:05:26.192Z,23.56
2019-04-22T11:06:27.473Z,23.60
2019-04-22T11:07:36.325Z,23.56
2019-04-22T11:08:41.497Z,23.57
2019-04-22T11:09:27.056Z,23.39
2019-04-22T11:10:41.201Z,23.01
2019-04-22T11:11:34.774Z,22.91
2019-04-22T11:12:28.849Z,23.15
2019-04-22T11:13:26.148Z,23.14
2019-04-22T11:14:26.568Z,22.86
2019-04-22T11:15:26.578Z,22.91
2019-04-22T11:16:25.800Z,22.93
2019-04-22T11:17:26.576Z,22.97
2019-04-22T11:18:25.774Z,22.72
2019-04-22T11:19:25.777Z,22.67
2019-04-22T11:20:26.058Z,22.79
2019-04-22T11:21:25.737Z,22.69
2019-04-22T11:22:30.035Z,22.86
2019-04-22T11:23:27.033Z,23.12
2019-04-22T11:24:26.677Z,23.26
2019-04-22T11:25:25.705Z,23.42
2019-04-22T11:26:25.989Z,23.49
2019-04-22T11:27:25.717Z,23.50
2019-04-22T11:28:25.696Z,23.29
2019-04-22T11:29:25.716Z,23.14
2019-04-22T11:30:27.957Z,23.38
2019-04-22T11:31:26.442Z,23.18
2019-04-22T11:32:26.650Z,23.07
2019-04-22T11:33:26.732Z,22.99
2019-04-22T11:34:26.932Z,22.97
2019-04-22T11:35:25.826Z,23.14
2019-04-22T11:36:28.645Z,23.23
2019-04-22T11:37:25.563Z,23.42
2019-04-22T11:38:26.762Z,23.62
2019-04-22T11:39:26.020Z,23.77
2019-04-22T11:40:33.827Z,24.00
2019-04-22T11:41:25.660Z,23.89
2019-04-22T11:42:25.938Z,23.74
2019-04-22T11:43:26.176Z,23.60
2019-04-22T11:44:25.496Z,23.81
2019-04-22T11:45:26.941Z,23.86
2019-04-22T11:46:25.469Z,23.84
2019-04-22T11:47:25.687Z,23.94
2019-04-22T11:48:26.921Z,24.21
2019-04-22T11:49:25.864Z,24.19
2019-04-22T11:50:26.140Z,23.92
2019-04-22T11:51:25.421Z,24.02
2019-04-22T11:52:26.763Z,23.97
2019-04-22T11:53:26.916Z,24.08
2019-04-22T11:54:25.401Z,23.96
2019-04-22T11:55:26.695Z,23.78
2019-04-22T11:56:25.350Z,23.62
2019-04-22T11:57:25.470Z,23.78
2019-04-22T11:58:26.576Z,23.81
2019-04-22T11:59:26.716Z,23.79
2019-04-22T12:00:25.329Z,23.94
2019-04-22T12:01:26.648Z,24.36
2019-04-22T12:02:25.747Z,24.41
2019-04-22T12:03:25.452Z,24.55
2019-04-22T12:04:25.729Z,24.68
2019-04-22T12:05:25.943Z,24.66
2019-04-22T12:06:26.259Z,24.55
2019-04-22T12:07:26.638Z,24.71
2019-04-22T12:08:25.250Z,24.59
2019-04-22T12:09:25.702Z,24.29
2019-04-22T12:10:33.285Z,24.30
2019-04-22T12:11:26.277Z,24.23
2019-04-22T12:12:25.584Z,24.36
2019-04-22T12:13:26.203Z,24.33
2019-04-22T12:14:25.661Z,24.08
2019-04-22T12:15:26.696Z,24.09
2019-04-22T12:16:25.520Z,24.41
2019-04-22T12:17:26.313Z,24.63
2019-04-22T12:18:25.122Z,24.59
2019-04-22T12:19:25.304Z,24.48
2019-04-22T12:20:25.533Z,24.53
2019-04-22T12:21:25.090Z,24.64
2019-04-22T12:22:25.201Z,24.36
2019-04-22T12:23:25.273Z,24.49
2019-04-22T12:24:25.203Z,24.71
2019-04-22T12:25:34.709Z,24.93
2019-04-22T12:26:25.631Z,24.46
2019-04-22T12:27:26.776Z,24.27
2019-04-22T12:28:25.007Z,24.31
2019-04-22T12:29:25.007Z,24.45
2019-04-22T12:30:25.610Z,24.64
2019-04-22T12:31:24.980Z,24.74
2019-04-22T12:32:25.389Z,24.80
2019-04-22T12:33:25.321Z,24.79
2019-04-22T12:34:25.740Z,24.51
2019-04-22T12:35:26.284Z,24.34
2019-04-22T12:36:26.473Z,24.23
2019-04-22T12:37:33.000Z,24.18
2019-04-22T12:38:24.912Z,24.23
2019-04-22T12:39:25.414Z,23.84
2019-04-22T12:40:33.848Z,23.82
2019-04-22T12:41:25.862Z,23.97
2019-04-22T12:42:24.856Z,24.26
2019-04-22T12:43:26.423Z,24.60
2019-04-22T12:44:26.525Z,24.83
2019-04-22T12:45:24.845Z,24.59
2019-04-22T12:46:26.141Z,24.41
2019-04-22T12:47:26.161Z,24.44
2019-04-22T12:48:25.440Z,24.37
2019-04-22T12:49:26.040Z,24.36
2019-04-22T12:50:29.893Z,24.56
2019-04-22T12:51:25.039Z,24.63
2019-04-22T12:52:35.217Z,24.84
2019-04-22T12:53:27.602Z,24.94
2019-04-22T12:54:24.743Z,24.68
2019-04-22T12:55:26.012Z,24.71
2019-04-22T12:56:25.846Z,24.93
2019-04-22T12:57:24.937Z,25.17
2019-04-22T12:58:25.562Z,24.71
2019-04-22T12:59:25.518Z,24.33
2019-04-22T13:00:24.756Z,24.36
2019-04-22T13:01:24.769Z,24.53
2019-04-22T13:02:25.138Z,24.56
2019-04-22T13:03:24.641Z,24.63
2019-04-22T13:04:25.261Z,24.75
2019-04-22T13:05:25.048Z,24.75
2019-04-22T13:06:25.815Z,24.99
2019-04-22T13:07:25.927Z,25.07
2019-04-22T13:08:25.549Z,24.52
2019-04-22T13:10:45.431Z,24.61
2019-04-22T13:11:36.511Z,24.16
2019-04-22T13:12:35.032Z,23.87
2019-04-22T13:13:34.723Z,23.94
2019-04-22T13:14:34.979Z,24.02
2019-04-22T13:15:35.115Z,24.37
2019-04-22T13:16:35.281Z,24.05
2019-04-22T13:17:35.744Z,24.14
2019-04-22T13:18:43.399Z,24.37
2019-04-22T13:19:36.008Z,24.23
2019-04-22T13:20:34.704Z,23.99
2019-04-22T13:21:34.666Z,23.78
2019-04-22T13:22:34.981Z,23.99
2019-04-22T13:23:34.616Z,24.33
2019-04-22T13:24:36.079Z,24.36
2019-04-22T13:25:34.782Z,24.82
2019-04-22T13:26:35.944Z,24.87
2019-04-22T13:27:35.122Z,24.26
2019-04-22T13:28:34.708Z,24.34
2019-04-22T13:29:34.988Z,24.33
2019-04-22T13:30:34.754Z,24.23
2019-04-22T13:31:34.933Z,23.99
2019-04-22T13:32:34.761Z,23.78
2019-04-22T13:33:34.750Z,23.77
2019-04-22T13:34:40.229Z,24.04
2019-04-22T13:35:36.105Z,24.30
2019-04-22T13:36:34.715Z,24.77
2019-04-22T13:37:34.989Z,25.23
2019-04-22T13:38:35.387Z,25.42
2019-04-22T13:39:34.814Z,25.29
2019-04-22T13:40:34.919Z,25.11
2019-04-22T13:41:42.997Z,24.90
2019-04-22T13:42:35.450Z,24.82
2019-04-22T13:43:34.852Z,24.94
2019-04-22T13:44:35.585Z,24.92
2019-04-22T13:45:34.380Z,25.01
2019-04-22T13:46:35.607Z,25.08
2019-04-22T13:47:50.297Z,25.01
2019-04-22T13:48:59.095Z,25.22
2019-04-22T13:50:11.748Z,25.14
2019-04-22T13:51:03.751Z,24.94
2019-04-22T13:52:00.897Z,24.23
2019-04-22T13:53:10.348Z,23.84
2019-04-22T13:55:00.129Z,23.90
2019-04-22T13:55:59.194Z,23.94
2019-04-22T13:56:51.893Z,24.26
2019-04-22T13:57:53.959Z,24.53
2019-04-22T13:58:48.509Z,24.77
2019-04-22T13:59:41.097Z,24.74
2019-04-22T14:00:34.594Z,24.64
2019-04-22T14:01:34.748Z,24.79
2019-04-22T14:02:34.739Z,24.90
2019-04-22T14:03:35.784Z,24.90
2019-04-22T14:04:34.671Z,24.80
2019-04-22T14:05:34.957Z,24.75
2019-04-22T14:06:34.725Z,24.53
2019-04-22T14:07:34.778Z,24.52
2019-04-22T14:08:35.336Z,24.52
2019-04-22T14:09:34.110Z,24.70
2019-04-22T14:10:34.490Z,24.66
2019-04-22T14:11:43.362Z,24.86
2019-04-22T14:12:34.935Z,24.70
2019-04-22T14:13:34.264Z,24.66
2019-04-22T14:14:34.059Z,24.61
2019-04-22T14:15:34.053Z,24.26
2019-04-22T14:16:35.255Z,24.24